This is the latest recevied weather packets stored in our database for station/object K7CTM. If no packets are shown the sender has not sent any weather packets the latest 10 day(s).
| Time | Temp. | Humidity | Pressure | Rain* | Wind** | Luminosity | Snow |
|---|---|---|---|---|---|---|---|
| 1778183874 | 17.22° C | 52% | 1022.4 hPa | 0 mm | - | 937 W/m² | - |
| 1778183571 | 16.11° C | 57% | 1022.7 hPa | 0 mm | - | 1125 W/m² | - |
| 1778183268 | 16.11° C | 57% | 1022.7 hPa | 0 mm | - | 459 W/m² | - |
| 1778182964 | 15.56° C | 60% | 1023 hPa | 0 mm | - | 793 W/m² | - |
| 1778182661 | 15° C | 60% | 1022.9 hPa | 0 mm | - | 478 W/m² | - |
| 1778182358 | 15° C | 60% | 1023 hPa | 0 mm | - | 400 W/m² | - |
| 1778182054 | 15° C | 59% | 1023.1 hPa | 0 mm | - | 454 W/m² | - |
| 1778181750 | 15° C | 61% | 1022.9 hPa | 0 mm | - | 456 W/m² | - |
| 1778181447 | 14.44° C | 64% | 1023 hPa | 0 mm | - | 452 W/m² | - |
| 1778181144 | 13.89° C | 64% | 1022.8 hPa | 0 mm | - | 422 W/m² | - |
| 1778180841 | 13.89° C | 65% | 1022.8 hPa | 0 mm | - | 344 W/m² | - |
| 1778180539 | 13.89° C | 64% | 1022.8 hPa | 0 mm | - | 186 W/m² | - |
| 1778180238 | 13.89° C | 65% | 1023 hPa | 0 mm | - | 180 W/m² | - |
| 1778179934 | 13.89° C | 62% | 1023 hPa | 0 mm | - | 200 W/m² | - |
| 1778179632 | 13.89° C | 64% | 1023 hPa | 0 mm | - | 237 W/m² | - |
| 1778179329 | 13.33° C | 66% | 1022.8 hPa | 0 mm | - | 327 W/m² | - |
| 1778179020 | 13.33° C | 69% | 1022.9 hPa | 0 mm | - | 222 W/m² | - |
| 1778178717 | 13.33° C | 69% | 1023 hPa | 0 mm | - | 238 W/m² | - |
| 1778178414 | 13.33° C | 67% | 1023.1 hPa | 0 mm | - | 206 W/m² | - |
| 1778178109 | 13.89° C | 65% | 1023.3 hPa | 0 mm | - | 202 W/m² | - |
| 1778177806 | 13.89° C | 67% | 1023.2 hPa | 0 mm | - | 181 W/m² | - |
| 1778177502 | 13.89° C | 64% | 1023.6 hPa | 0 mm | - | 204 W/m² | - |
| 1778177199 | 13.89° C | 63% | 1023.3 hPa | 0 mm | - | 253 W/m² | - |
| 1778176896 | 13.33° C | 67% | 1023.2 hPa | 0 mm | - | 323 W/m² | - |
| 1778176591 | 12.78° C | 69% | 1023.6 hPa | 0 mm | - | 267 W/m² | - |
* Rain latest hour (hover to see other rain measurements)
** Current wind speed in m/s (hover to see current wind gust speed)